Time;durP1;ratioP1;P1;durP2;ratioP2;P2;SDS_P1;SDS_P2;PMS_P1;PMS_P2;Temp;Humidity;BMP_temperature;BMP_pressure;BME280_temperature;BME280_humidity;BME280_pressure;Samples;Min_cycle;Max_cycle;Signal;HPM_P1;HPM_P2
2022/08/28 00:00:19;;;;;;;54.83;34.67;;;18.80;99.90;;;;;;5021985;28;20190;-80
2022/08/28 00:02:46;;;;;;;52.40;36.00;;;18.80;99.90;;;;;;5024076;28;20671;-80
2022/08/28 00:05:14;;;;;;;59.93;36.63;;;18.90;99.90;;;;;;5023624;28;20204;-80
2022/08/28 00:07:40;;;;;;;69.90;37.93;;;18.90;99.90;;;;;;5018951;28;20176;-80
2022/08/28 00:10:08;;;;;;;75.63;39.50;;;18.90;99.90;;;;;;5030289;28;20184;-78
2022/08/28 00:12:35;;;;;;;57.70;36.13;;;18.90;99.90;;;;;;5034326;28;20179;-78
2022/08/28 00:15:05;;;;;;;72.53;37.40;;;18.90;99.90;;;;;;5019896;28;20702;-80
2022/08/28 00:17:30;;;;;;;60.10;39.27;;;18.90;99.90;;;;;;5017187;28;20180;-80
2022/08/28 00:19:56;;;;;;;66.20;42.30;;;18.90;99.90;;;;;;5017698;28;20191;-80
2022/08/28 00:22:22;;;;;;;63.40;41.23;;;19.00;99.90;;;;;;5016551;28;20180;-80
2022/08/28 00:24:48;;;;;;;78.90;39.80;;;18.90;99.90;;;;;;5017720;28;20195;-79
2022/08/28 00:29:58;;;;;;;60.60;44.57;;;19.00;99.90;;;;;;5017084;28;20238;-80
2022/08/28 00:32:24;;;;;;;72.53;40.10;;;19.00;99.90;;;;;;5016378;28;20179;-79
2022/08/28 00:34:50;;;;;;;66.60;37.37;;;19.00;99.90;;;;;;5017880;28;20182;-79
2022/08/28 00:37:17;;;;;;;86.43;38.53;;;19.00;99.90;;;;;;5014688;28;20231;-80
2022/08/28 00:39:43;;;;;;;59.20;37.23;;;19.00;99.90;;;;;;5015329;28;20223;-80
2022/08/28 00:42:10;;;;;;;91.23;40.93;;;19.00;99.90;;;;;;5014798;28;20706;-80
2022/08/28 00:44:36;;;;;;;68.77;39.20;;;19.00;99.90;;;;;;5014494;28;20668;-80
2022/08/28 00:47:02;;;;;;;67.07;40.70;;;19.00;99.90;;;;;;5015093;28;20730;-79
2022/08/28 00:49:34;;;;;;;74.43;43.93;;;19.00;99.90;;;;;;5015329;28;20723;-79
2022/08/28 00:52:14;;;;;;;86.67;39.93;;;19.00;99.90;;;;;;5015323;28;20242;-80
2022/08/28 00:54:51;;;;;;;53.13;39.27;;;19.00;99.90;;;;;;5015841;28;20183;-80
2022/08/28 00:57:24;;;;;;;69.77;40.13;;;19.00;99.90;;;;;;5016068;28;20194;-80
2022/08/28 00:59:51;;;;;;;65.63;37.83;;;19.00;99.90;;;;;;5015504;28;20184;-80
2022/08/28 01:02:17;;;;;;;75.80;38.60;;;19.00;99.90;;;;;;5024083;28;20266;-78
2022/08/28 01:04:43;;;;;;;90.07;36.33;;;19.00;99.90;;;;;;5012123;28;20187;-78
2022/08/28 01:07:15;;;;;;;60.43;33.87;;;18.90;99.90;;;;;;5013427;28;20593;-78
2022/08/28 01:09:46;;;;;;;59.43;34.83;;;18.90;99.90;;;;;;4999151;28;20436;-80
2022/08/28 01:12:20;;;;;;;50.27;34.30;;;18.90;99.90;;;;;;4997965;28;20238;-79
2022/08/28 01:14:49;;;;;;;52.33;35.17;;;18.90;99.90;;;;;;4996148;28;20175;-79
2022/08/28 01:17:19;;;;;;;62.60;38.07;;;18.90;99.90;;;;;;5011541;28;20275;-79
2022/08/28 01:19:55;;;;;;;51.43;36.30;;;18.90;99.90;;;;;;5014181;28;20263;-78
2022/08/28 01:22:32;;;;;;;56.07;42.93;;;18.80;99.90;;;;;;5018012;28;20647;-76
2022/08/28 01:25:00;;;;;;;54.30;42.23;;;18.80;99.90;;;;;;5023533;28;20180;-76
2022/08/28 01:27:27;;;;;;;55.17;47.10;;;18.80;99.90;;;;;;5020635;28;20227;-78
2022/08/28 01:29:53;;;;;;;50.60;45.27;;;18.80;99.90;;;;;;5012856;28;20555;-78
2022/08/28 01:32:38;;;;;;;59.37;48.10;;;18.70;99.90;;;;;;5013659;28;20267;-78
2022/08/28 01:35:09;;;;;;;51.70;46.17;;;18.70;99.90;;;;;;5013082;28;20545;-78
2022/08/28 01:37:36;;;;;;;42.20;35.27;;;18.70;99.90;;;;;;5013869;28;20188;-78
2022/08/28 01:40:05;;;;;;;39.97;35.80;;;18.70;99.90;;;;;;5014446;28;20687;-78
2022/08/28 01:42:38;;;;;;;40.13;32.10;;;18.70;99.90;;;;;;5013963;28;20664;-79
2022/08/28 01:45:10;;;;;;;43.93;38.20;;;18.80;99.90;;;;;;5012449;28;20231;-79
2022/08/28 01:47:37;;;;;;;59.60;48.17;;;18.80;99.90;;;;;;5011538;28;20822;-78
2022/08/28 01:50:05;;;;;;;58.53;52.20;;;18.80;99.90;;;;;;5018270;28;20191;-78
2022/08/28 01:52:31;;;;;;;56.47;44.83;;;18.80;99.90;;;;;;5016431;28;20210;-79
2022/08/28 01:54:57;;;;;;;57.03;48.07;;;18.80;99.90;;;;;;5014216;28;20563;-79
2022/08/28 01:57:24;;;;;;;58.57;52.63;;;18.80;99.90;;;;;;5011967;28;20609;-79
2022/08/28 01:59:53;;;;;;;61.03;54.87;;;18.90;99.90;;;;;;5016100;28;20180;-78
2022/08/28 02:02:19;;;;;;;49.17;44.17;;;18.90;99.90;;;;;;5017474;28;20274;-78
2022/08/28 02:04:45;;;;;;;43.47;38.00;;;18.80;99.90;;;;;;5016421;28;20731;-81
2022/08/28 02:07:11;;;;;;;41.43;36.90;;;18.80;99.90;;;;;;5015388;28;20208;-81
2022/08/28 02:09:37;;;;;;;40.63;35.70;;;18.80;99.90;;;;;;5017295;28;20179;-77
2022/08/28 02:12:03;;;;;;;37.13;33.13;;;18.80;99.90;;;;;;5017928;28;20203;-80
2022/08/28 02:14:29;;;;;;;40.27;35.77;;;18.90;99.90;;;;;;5016910;28;20649;-80
2022/08/28 02:16:56;;;;;;;38.87;34.87;;;18.80;99.90;;;;;;5016138;28;20208;-79
2022/08/28 02:19:22;;;;;;;36.47;32.97;;;18.80;99.90;;;;;;5017802;28;20218;-79
2022/08/28 02:21:48;;;;;;;33.90;30.43;;;18.80;99.90;;;;;;5023027;28;20660;-80
2022/08/28 02:24:15;;;;;;;28.90;25.83;;;18.80;99.90;;;;;;5017559;28;20183;-81
2022/08/28 02:26:43;;;;;;;31.30;28.33;;;18.80;99.90;;;;;;5017199;28;20611;-80
2022/08/28 02:29:10;;;;;;;32.03;28.87;;;18.80;99.90;;;;;;5016265;28;20176;-80
2022/08/28 02:31:36;;;;;;;31.07;28.17;;;18.80;99.90;;;;;;5017009;28;20187;-81
2022/08/28 02:34:03;;;;;;;27.67;24.87;;;18.80;99.90;;;;;;5017177;28;20223;-81
2022/08/28 02:36:29;;;;;;;27.97;24.97;;;18.80;99.90;;;;;;5016784;28;20211;-81
2022/08/28 02:38:55;;;;;;;26.33;23.73;;;18.80;99.90;;;;;;5018190;28;20843;-78
2022/08/28 02:41:22;;;;;;;26.20;23.67;;;18.80;99.90;;;;;;5029336;28;20366;-79
2022/08/28 02:43:47;;;;;;;27.80;25.10;;;18.80;99.90;;;;;;5029199;28;20188;-77
2022/08/28 02:46:13;;;;;;;30.03;27.13;;;18.90;99.90;;;;;;5020447;28;20230;-78
2022/08/28 02:48:39;;;;;;;29.60;26.83;;;18.90;99.90;;;;;;5018550;28;20195;-79
2022/08/28 02:51:12;;;;;;;29.93;27.23;;;18.90;99.90;;;;;;5022118;28;20214;-79
2022/08/28 02:53:39;;;;;;;27.13;24.43;;;18.80;99.90;;;;;;5023646;28;20213;-77
2022/08/28 02:56:05;;;;;;;28.67;25.97;;;18.80;99.90;;;;;;5018358;28;20250;-80
2022/08/28 02:58:32;;;;;;;29.43;26.83;;;18.90;99.90;;;;;;5014311;28;20191;-79
2022/08/28 03:01:05;;;;;;;29.40;26.63;;;18.80;99.90;;;;;;5015325;28;20607;-78
2022/08/28 03:03:32;;;;;;;30.50;27.70;;;18.80;99.90;;;;;;5017031;28;20191;-78
2022/08/28 03:05:59;;;;;;;27.10;24.53;;;18.80;99.90;;;;;;5016103;28;20211;-78
2022/08/28 03:08:25;;;;;;;27.27;24.43;;;18.80;99.90;;;;;;5015360;28;20187;-78
2022/08/28 03:10:51;;;;;;;26.07;23.63;;;18.80;99.90;;;;;;5017626;28;20242;-79
2022/08/28 03:13:17;;;;;;;25.10;22.60;;;18.80;99.90;;;;;;5022277;28;20214;-79
2022/08/28 03:15:45;;;;;;;31.70;28.80;;;18.80;99.90;;;;;;5018255;28;20321;-79
2022/08/28 03:18:13;;;;;;;68.30;63.70;;;18.80;99.90;;;;;;5019319;28;20266;-79
2022/08/28 03:20:41;;;;;;;152.43;143.17;;;18.70;99.90;;;;;;5016285;28;20180;-79
2022/08/28 03:23:25;;;;;;;77.53;72.03;;;18.70;99.90;;;;;;5015306;28;20192;-81
2022/08/28 03:25:53;;;;;;;149.90;140.97;;;18.70;99.90;;;;;;5016180;28;20223;-79
2022/08/28 03:28:19;;;;;;;162.97;153.60;;;18.70;99.90;;;;;;5015073;28;20183;-78
2022/08/28 03:30:45;;;;;;;220.20;207.47;;;18.80;99.90;;;;;;5018036;28;20191;-81
2022/08/28 03:33:13;;;;;;;270.20;254.70;;;18.80;99.90;;;;;;5017735;28;20664;-79
2022/08/28 03:35:39;;;;;;;283.90;267.27;;;18.80;99.90;;;;;;4999851;28;20647;-79
2022/08/28 03:38:05;;;;;;;319.53;300.83;;;18.80;99.90;;;;;;5014279;28;20201;-77
2022/08/28 03:40:31;;;;;;;287.53;270.83;;;18.80;99.90;;;;;;5016147;28;20183;-79
2022/08/28 03:42:57;;;;;;;274.67;258.13;;;18.80;99.90;;;;;;5018193;28;20644;-79
2022/08/28 03:45:23;;;;;;;241.50;227.00;;;18.80;99.90;;;;;;5075173;22;20680;-78
2022/08/28 03:47:50;;;;;;;324.03;304.63;;;18.80;99.90;;;;;;5042783;28;20236;-79
2022/08/28 03:50:16;;;;;;;395.57;371.50;;;18.90;99.90;;;;;;5038378;28;20195;-80
2022/08/28 03:52:42;;;;;;;407.07;382.63;;;18.90;99.90;;;;;;5037444;28;20179;-81
2022/08/28 03:55:11;;;;;;;391.53;367.40;;;18.90;99.90;;;;;;5027428;28;20190;-72
2022/08/28 03:57:37;;;;;;;402.13;377.37;;;18.90;99.90;;;;;;5025148;28;20209;-73
2022/08/28 04:00:05;;;;;;;381.37;358.50;;;18.90;99.90;;;;;;5031499;28;20274;-72
2022/08/28 04:02:31;;;;;;;258.87;243.77;;;18.90;99.90;;;;;;5031187;28;20185;-72
2022/08/28 04:04:57;;;;;;;179.83;169.37;;;18.90;99.90;;;;;;5032059;28;20273;-73
2022/08/28 04:07:23;;;;;;;138.63;130.17;;;18.90;99.90;;;;;;5030580;28;20211;-73
2022/08/28 04:09:49;;;;;;;122.97;115.67;;;18.90;99.90;;;;;;5030898;28;20183;-73
2022/08/28 04:12:14;;;;;;;101.37;94.87;;;18.90;99.90;;;;;;5031874;28;20179;-73
2022/08/28 04:14:40;;;;;;;51.30;46.80;;;18.90;99.90;;;;;;5031464;28;20200;-72
2022/08/28 04:17:06;;;;;;;107.17;100.50;;;18.90;99.90;;;;;;5029892;28;20205;-73
2022/08/28 04:19:33;;;;;;;221.47;208.67;;;18.90;99.90;;;;;;5032689;28;20183;-73
2022/08/28 04:21:59;;;;;;;216.13;203.67;;;18.90;99.90;;;;;;5030853;28;20190;-72
2022/08/28 04:24:25;;;;;;;199.93;187.97;;;18.90;99.90;;;;;;5030955;28;20183;-73
2022/08/28 04:26:52;;;;;;;111.00;104.33;;;18.90;99.90;;;;;;5030375;28;20489;-73
2022/08/28 04:29:19;;;;;;;110.77;103.70;;;18.90;99.90;;;;;;5030055;28;20183;-72
2022/08/28 04:31:44;;;;;;;86.50;80.83;;;18.90;99.90;;;;;;5030552;28;20176;-73
2022/08/28 04:34:10;;;;;;;212.50;199.90;;;18.90;99.90;;;;;;5030396;28;20183;-73
2022/08/28 04:36:37;;;;;;;301.30;283.53;;;18.90;99.90;;;;;;5030445;28;20247;-73
2022/08/28 04:39:07;;;;;;;358.03;336.20;;;18.80;99.90;;;;;;5029731;28;20563;-73
2022/08/28 04:41:35;;;;;;;308.27;290.37;;;18.80;99.90;;;;;;5031230;28;20336;-73
2022/08/28 04:44:02;;;;;;;369.10;346.17;;;18.80;99.90;;;;;;5031426;28;20183;-73
2022/08/28 04:46:28;;;;;;;296.93;279.13;;;18.80;99.90;;;;;;5029003;28;20219;-73
2022/08/28 04:48:55;;;;;;;183.40;172.73;;;18.90;99.90;;;;;;5030435;28;20175;-72
2022/08/28 04:51:21;;;;;;;209.50;197.00;;;18.90;99.90;;;;;;5029641;28;20179;-73
2022/08/28 04:53:47;;;;;;;206.60;194.70;;;18.90;99.90;;;;;;5029401;28;20179;-73
2022/08/28 04:56:14;;;;;;;208.37;195.70;;;18.90;99.90;;;;;;5029145;28;20195;-72
2022/08/28 04:58:42;;;;;;;212.10;199.40;;;18.90;99.90;;;;;;5029634;28;20187;-73
2022/08/28 05:01:12;;;;;;;203.33;191.20;;;18.90;99.90;;;;;;5030578;28;20202;-73
2022/08/28 05:03:38;;;;;;;255.23;240.13;;;18.90;99.90;;;;;;5030948;28;20187;-73
2022/08/28 05:06:05;;;;;;;289.63;272.37;;;18.80;99.90;;;;;;5030524;28;20229;-72
2022/08/28 05:08:32;;;;;;;216.07;203.33;;;18.80;99.90;;;;;;5029529;28;20183;-73
2022/08/28 05:11:12;;;;;;;137.70;129.37;;;18.80;99.90;;;;;;5030112;28;20632;-73
2022/08/28 05:13:38;;;;;;;152.27;143.23;;;18.80;99.90;;;;;;5031074;28;20545;-73
2022/08/28 05:16:04;;;;;;;157.80;148.23;;;18.80;99.90;;;;;;5029643;28;20691;-73
2022/08/28 05:18:31;;;;;;;136.23;127.97;;;18.80;99.90;;;;;;5028324;28;20224;-73
2022/08/28 05:20:57;;;;;;;275.33;259.17;;;18.90;99.90;;;;;;5030650;28;20662;-73
2022/08/28 05:23:23;;;;;;;367.20;344.57;;;18.90;99.90;;;;;;5029672;28;20257;-72
2022/08/28 05:25:49;;;;;;;420.93;395.00;;;18.90;99.90;;;;;;5030396;28;20214;-73
2022/08/28 05:28:16;;;;;;;379.33;356.07;;;18.80;99.90;;;;;;5028005;28;20190;-73
2022/08/28 05:30:42;;;;;;;304.00;285.00;;;18.90;99.90;;;;;;5030222;28;20219;-73
2022/08/28 05:33:10;;;;;;;272.03;255.30;;;18.90;99.90;;;;;;5032686;28;20678;-72
2022/08/28 05:35:38;;;;;;;431.53;404.63;;;19.00;99.90;;;;;;5034488;28;20210;-78
2022/08/28 05:38:05;;;;;;;442.47;415.53;;;19.00;99.90;;;;;;5033555;28;20179;-77
2022/08/28 05:40:32;;;;;;;449.57;421.57;;;19.10;99.90;;;;;;5034278;28;20337;-77
2022/08/28 05:42:57;;;;;;;267.17;251.10;;;19.10;99.90;;;;;;5034643;28;20202;-77
2022/08/28 05:45:23;;;;;;;248.63;233.87;;;19.20;99.90;;;;;;5034189;28;20265;-78
2022/08/28 05:47:50;;;;;;;90.77;84.30;;;19.20;99.90;;;;;;5031255;28;20183;-77
2022/08/28 05:50:16;;;;;;;63.83;59.13;;;19.30;99.90;;;;;;5051100;28;20598;-74
2022/08/28 05:52:43;;;;;;;69.37;64.73;;;19.30;99.90;;;;;;5053772;28;20200;-74
2022/08/28 05:55:11;;;;;;;43.93;40.57;;;19.40;99.90;;;;;;5054599;28;20739;-74
2022/08/28 05:57:39;;;;;;;46.13;42.73;;;19.40;99.90;;;;;;5042822;28;20295;-74
2022/08/28 06:00:06;;;;;;;41.23;38.00;;;19.60;99.90;;;;;;5036008;28;20179;-74
2022/08/28 06:02:33;;;;;;;38.23;34.80;;;19.70;99.90;;;;;;5035347;28;20193;-74
2022/08/28 06:05:01;;;;;;;51.20;47.50;;;19.80;99.90;;;;;;5033615;28;20309;-74
2022/08/28 06:07:27;;;;;;;77.03;71.57;;;20.00;99.90;;;;;;5033360;28;20207;-73
2022/08/28 06:09:52;;;;;;;86.70;81.33;;;20.10;99.90;;;;;;5034597;28;20229;-73
2022/08/28 06:12:19;;;;;;;63.70;59.67;;;20.10;99.90;;;;;;5033844;28;20175;-74
2022/08/28 06:14:44;;;;;;;24.87;22.47;;;20.20;99.90;;;;;;5034510;28;20181;-73
2022/08/28 06:17:10;;;;;;;22.40;19.93;;;20.30;99.90;;;;;;5033021;28;20202;-74
2022/08/28 06:19:36;;;;;;;24.47;17.00;;;20.40;99.90;;;;;;5034258;28;20179;-74
2022/08/28 06:22:04;;;;;;;21.33;19.37;;;20.50;99.90;;;;;;5034414;28;20183;-74
2022/08/28 06:24:31;;;;;;;21.40;19.17;;;20.60;99.90;;;;;;5034368;28;20183;-74
2022/08/28 06:26:58;;;;;;;22.23;19.57;;;20.80;99.90;;;;;;5033210;28;20199;-74
2022/08/28 06:29:26;;;;;;;23.97;21.97;;;20.90;99.90;;;;;;5034008;28;20175;-74
2022/08/28 06:31:54;;;;;;;24.87;22.77;;;21.00;99.90;;;;;;5032901;28;20179;-74
2022/08/28 06:34:20;;;;;;;30.90;28.50;;;21.20;99.90;;;;;;5034106;28;20171;-74
2022/08/28 06:36:46;;;;;;;72.43;68.30;;;21.30;99.90;;;;;;5033216;28;20252;-73
2022/08/28 06:39:13;;;;;;;65.13;61.27;;;21.30;99.90;;;;;;5024975;28;20198;-74
2022/08/28 06:41:42;;;;;;;86.43;81.33;;;21.40;99.90;;;;;;5016169;28;20561;-74
2022/08/28 06:44:18;;;;;;;97.33;91.43;;;21.50;99.90;;;;;;5017503;28;20597;-74
2022/08/28 06:46:46;;;;;;;79.27;74.80;;;21.60;99.90;;;;;;5031868;28;20593;-74
2022/08/28 06:49:12;;;;;;;92.57;87.20;;;21.60;99.90;;;;;;5033253;28;20194;-75
2022/08/28 06:51:38;;;;;;;61.57;57.47;;;21.50;99.90;;;;;;5033526;28;20267;-74
2022/08/28 06:54:05;;;;;;;64.63;60.63;;;21.50;99.90;;;;;;5031866;28;20175;-75
2022/08/28 06:56:31;;;;;;;56.30;52.73;;;21.40;99.90;;;;;;5033894;28;20207;-74
2022/08/28 06:58:58;;;;;;;55.73;52.20;;;21.40;99.90;;;;;;5030418;28;20179;-74
2022/08/28 07:01:27;;;;;;;60.53;56.77;;;21.50;99.90;;;;;;5031503;28;20652;-74
2022/08/28 07:03:58;;;;;;;33.37;30.63;;;21.50;99.90;;;;;;5033209;28;20297;-73
2022/08/28 07:06:24;;;;;;;23.03;21.03;;;21.50;99.90;;;;;;5033272;28;20218;-74
2022/08/28 07:08:50;;;;;;;72.93;68.63;;;21.20;99.90;;;;;;5029809;28;20644;-74
2022/08/28 07:11:23;;;;;;;84.77;79.40;;;21.30;99.90;;;;;;5032100;28;20588;-74
2022/08/28 07:13:51;;;;;;;85.13;79.97;;;21.30;99.90;;;;;;5033060;28;20183;-74
2022/08/28 07:16:20;;;;;;;72.60;68.27;;;21.20;99.90;;;;;;5032364;28;20694;-74
2022/08/28 07:18:46;;;;;;;89.60;84.33;;;21.20;99.90;;;;;;5030718;28;20182;-74
2022/08/28 07:21:12;;;;;;;111.87;105.47;;;21.30;99.90;;;;;;5033216;28;20206;-74
2022/08/28 07:23:39;;;;;;;96.47;90.80;;;21.40;99.90;;;;;;5032002;28;20631;-74
2022/08/28 07:26:08;;;;;;;100.67;95.07;;;21.40;99.90;;;;;;5032812;28;20268;-74
2022/08/28 07:28:36;;;;;;;49.83;46.53;;;21.50;99.90;;;;;;5030737;28;20183;-78
2022/08/28 07:31:08;;;;;;;29.00;26.80;;;21.50;99.90;;;;;;5031022;28;20194;-70
2022/08/28 07:33:35;;;;;;;21.97;20.37;;;21.50;99.90;;;;;;5032767;28;20187;-71
2022/08/28 07:36:02;;;;;;;29.13;27.03;;;21.40;99.90;;;;;;5032844;28;20198;-69
2022/08/28 07:38:28;;;;;;;44.13;41.00;;;21.50;99.90;;;;;;5030264;28;20342;-71
2022/08/28 07:40:54;;;;;;;24.53;22.30;;;21.50;99.90;;;;;;5034783;28;20183;-70
2022/08/28 07:46:07;;;;;;;19.73;18.13;;;21.60;99.90;;;;;;5031716;28;20219;-74
2022/08/28 07:48:34;;;;;;;25.30;23.07;;;21.40;99.90;;;;;;5033508;28;20187;-76
2022/08/28 07:51:04;;;;;;;23.37;21.47;;;21.30;99.90;;;;;;5034275;28;20179;-77
2022/08/28 07:53:30;;;;;;;22.27;20.17;;;21.30;99.90;;;;;;5036303;28;20256;-79
2022/08/28 07:55:57;;;;;;;18.27;16.00;;;21.30;99.90;;;;;;5035420;28;20577;-79
2022/08/28 07:58:24;;;;;;;21.20;19.37;;;21.30;99.90;;;;;;5035436;28;20206;-79
2022/08/28 08:00:52;;;;;;;24.07;21.97;;;21.50;99.90;;;;;;5053743;28;20194;-78
2022/08/28 08:03:17;;;;;;;23.60;21.07;;;21.60;99.90;;;;;;5040873;28;20287;-81
2022/08/28 08:05:58;;;;;;;25.00;22.37;;;21.70;99.90;;;;;;5034618;28;20750;-79
2022/08/28 08:08:25;;;;;;;30.83;27.93;;;22.00;99.90;;;;;;5032251;28;20217;-79
2022/08/28 08:11:06;;;;;;;37.20;34.87;;;22.30;99.90;;;;;;5036095;28;20232;-81
2022/08/28 08:13:34;;;;;;;32.10;29.75;;;22.60;99.90;;;;;;5039535;28;20648;-80
2022/08/28 08:16:05;;;;;;;22.03;19.27;;;22.80;99.90;;;;;;5039414;28;20245;-79
2022/08/28 08:18:32;;;;;;;17.85;16.15;;;23.00;99.90;;;;;;5036235;28;20562;-80
2022/08/28 08:20:58;;;;;;;16.63;15.23;;;23.30;99.90;;;;;;5037183;28;20202;-79
2022/08/28 08:23:24;;;;;;;16.85;15.35;;;23.30;99.90;;;;;;5040367;28;20190;-83
2022/08/28 08:26:04;;;;;;;15.40;13.77;;;23.40;99.90;;;;;;5040991;28;20586;-82
2022/08/28 08:28:32;;;;;;;16.13;14.65;;;23.40;99.90;;;;;;5049480;28;20182;-81
2022/08/28 08:31:19;;;;;;;15.13;13.63;;;23.30;99.90;;;;;;5055876;28;20183;-81
2022/08/28 08:33:49;;;;;;;16.92;15.30;;;23.30;99.90;;;;;;5041944;28;20562;-83
2022/08/28 08:36:17;;;;;;;16.93;15.40;;;23.30;99.90;;;;;;5040997;28;20205;-83
2022/08/28 08:38:44;;;;;;;17.03;15.57;;;23.00;99.90;;;;;;5039083;28;20190;-84
2022/08/28 08:41:26;;;;;;;17.50;15.87;;;22.90;99.90;;;;;;5044489;28;20202;-81
2022/08/28 08:44:07;;;;;;;17.80;15.90;;;23.00;99.90;;;;;;5046732;28;20179;-82
2022/08/28 08:46:49;;;;;;;17.17;15.60;;;22.90;99.90;;;;;;5051465;28;20198;-83
2022/08/28 08:49:19;;;;;;;33.80;30.35;;;22.90;99.90;;;;;;5047199;28;20206;-83
2022/08/28 08:52:10;;;;;;;18.77;16.98;;;23.00;99.90;;;;;;5041460;28;20187;-84
2022/08/28 08:54:41;;;;;;;15.82;14.27;;;23.20;99.90;;;;;;5039100;28;20214;-83
2022/08/28 08:57:13;;;;;;;18.02;15.15;;;23.70;99.90;;;;;;5040665;28;20741;-83
2022/08/28 08:59:40;;;;;;;54.40;50.85;;;24.10;99.90;;;;;;5038809;28;20194;-83
2022/08/28 09:02:21;;;;;;;48.28;45.22;;;24.50;99.90;;;;;;5038927;28;20775;-84
2022/08/28 09:05:15;;;;;;;64.65;60.80;;;24.80;99.90;;;;;;5039191;28;20190;-83
2022/08/28 09:07:55;;;;;;;87.78;82.85;;;25.00;99.90;;;;;;5038682;28;20214;-84
2022/08/28 09:10:24;;;;;;;137.75;130.43;;;25.30;99.90;;;;;;5038664;28;20209;-83
2022/08/28 09:13:01;;;;;;;108.13;102.38;;;25.70;99.90;;;;;;5038756;28;20308;-83
2022/08/28 09:15:34;;;;;;;78.70;74.10;;;25.60;99.90;;;;;;5038668;28;20175;-83
2022/08/28 09:18:30;;;;;;;106.95;100.82;;;25.40;99.90;;;;;;5036987;28;20240;-84
2022/08/28 09:20:58;;;;;;;54.85;51.30;;;25.40;99.90;;;;;;5036163;28;20178;-83
2022/08/28 09:23:26;;;;;;;54.90;51.42;;;25.40;99.90;;;;;;5030817;28;20175;-80
2022/08/28 09:25:57;;;;;;;64.07;60.35;;;25.30;99.90;;;;;;5030668;28;20214;-80
2022/08/28 09:28:27;;;;;;;116.80;110.68;;;25.30;99.90;;;;;;5033131;28;20183;-81
2022/08/28 09:31:00;;;;;;;81.78;77.10;;;25.60;99.90;;;;;;5033394;28;20175;-81
2022/08/28 09:33:50;;;;;;;25.30;23.55;;;26.40;99.90;;;;;;5032119;28;20210;-81
2022/08/28 09:36:37;;;;;;;51.03;48.05;;;27.40;99.90;;;;;;5040763;28;20210;-82
2022/08/28 09:39:11;;;;;;;27.35;25.45;;;28.10;99.90;;;;;;5043529;28;20179;-84
2022/08/28 09:44:55;;;;;;;12.77;11.57;;;29.10;99.90;;;;;;5048381;28;20194;-84
2022/08/28 09:47:34;;;;;;;14.63;12.68;;;29.30;99.90;;;;;;5074218;23;20584;-82
2022/08/28 09:50:27;;;;;;;13.68;12.52;;;29.40;99.90;;;;;;5054588;28;20182;-81
2022/08/28 09:52:57;;;;;;;12.68;11.55;;;29.50;99.90;;;;;;5060015;28;20182;-77
2022/08/28 09:55:37;;;;;;;13.13;12.10;;;30.10;99.90;;;;;;5074065;28;20182;-79
2022/08/28 09:58:04;;;;;;;16.65;15.25;;;29.90;99.90;;;;;;5045721;28;20229;-80
2022/08/28 10:00:41;;;;;;;15.27;14.07;;;29.30;99.90;;;;;;5039822;28;20198;-79
2022/08/28 10:03:14;;;;;;;16.33;15.02;;;29.00;99.90;;;;;;5039203;28;20644;-81
2022/08/28 10:05:53;;;;;;;16.52;15.35;;;29.00;99.90;;;;;;5031871;28;20278;-82
2022/08/28 10:08:31;;;;;;;15.15;13.85;;;29.00;99.90;;;;;;5047315;28;20189;-81
2022/08/28 10:11:12;;;;;;;17.35;15.82;;;28.50;99.90;;;;;;5035599;28;20213;-82
2022/08/28 10:13:54;;;;;;;12.73;11.63;;;29.00;99.90;;;;;;5043409;28;20644;-80
2022/08/28 10:16:31;;;;;;;17.17;15.80;;;29.50;99.90;;;;;;5037468;28;20699;-82
2022/08/28 10:19:11;;;;;;;18.15;16.65;;;29.40;99.90;;;;;;5032836;28;20541;-81
2022/08/28 10:21:49;;;;;;;16.52;15.13;;;29.20;99.90;;;;;;5037306;28;20186;-82
2022/08/28 10:24:36;;;;;;;14.68;13.57;;;29.50;99.90;;;;;;5039742;28;20193;-80
2022/08/28 10:27:26;;;;;;;16.60;15.45;;;29.10;99.90;;;;;;5051643;28;20222;-82
2022/08/28 10:30:13;;;;;;;13.43;12.15;;;29.30;99.90;;;;;;5015365;28;20859;-80
2022/08/28 10:33:02;;;;;;;13.57;12.55;;;30.10;99.90;;;;;;5016370;28;20179;-80
2022/08/28 10:35:54;;;;;;;8.88;7.75;;;30.90;99.90;;;;;;5005258;28;20701;-83
2022/08/28 10:38:41;;;;;;;14.98;13.65;;;30.60;99.90;;;;;;5020575;28;20187;-81
2022/08/28 10:41:20;;;;;;;14.93;13.82;;;29.60;99.90;;;;;;5036397;28;20229;-81
2022/08/28 10:43:51;;;;;;;13.82;12.80;;;28.90;99.90;;;;;;5034881;28;20189;-81
2022/08/28 10:46:25;;;;;;;11.73;10.82;;;28.40;99.90;;;;;;5035448;28;20585;-79
2022/08/28 10:48:58;;;;;;;15.05;14.05;;;29.00;99.90;;;;;;5033626;28;20647;-79
2022/08/28 10:51:32;;;;;;;16.55;15.27;;;29.70;99.90;;;;;;5034968;28;20190;-81
2022/08/28 10:54:04;;;;;;;13.07;11.85;;;29.90;99.90;;;;;;5034173;28;20179;-80
2022/08/28 10:57:29;;;;;;;9.98;9.05;;;30.80;99.90;;;;;;5034102;28;20293;-79
2022/08/28 10:59:56;;;;;;;10.13;8.65;;;31.50;99.90;;;;;;5019911;28;20660;-78
2022/08/28 11:02:25;;;;;;;10.70;8.43;;;31.60;98.50;;;;;;5036802;28;20187;-78
2022/08/28 11:04:54;;;;;;;9.18;8.27;;;31.00;99.40;;;;;;5039170;28;20184;-79
2022/08/28 11:07:29;;;;;;;9.80;8.95;;;30.50;99.20;;;;;;5036341;28;20262;-81
2022/08/28 11:10:34;;;;;;;9.95;8.90;;;29.70;99.90;;;;;;5046368;28;20187;-80
2022/08/28 11:13:01;;;;;;;11.75;10.75;;;29.40;99.90;;;;;;5040635;28;20191;-82
2022/08/28 11:15:27;;;;;;;13.80;12.63;;;29.10;99.90;;;;;;5040661;28;20590;-79
2022/08/28 11:18:48;;;;;;;14.82;13.73;;;29.40;99.90;;;;;;5033795;28;20238;-78
2022/08/28 11:21:27;;;;;;;16.33;15.13;;;29.40;99.90;;;;;;4996126;28;20192;-77
2022/08/28 11:24:08;;;;;;;12.13;10.98;;;29.40;99.90;;;;;;5013913;28;20265;-78
2022/08/28 11:26:55;;;;;;;14.10;12.93;;;29.20;99.90;;;;;;5015193;28;20563;-78
2022/08/28 11:29:59;;;;;;;18.23;16.83;;;29.10;99.90;;;;;;5029224;28;20189;-77
2022/08/28 11:32:29;;;;;;;14.40;12.90;;;28.70;99.90;;;;;;5035353;28;20237;-77
2022/08/28 11:35:00;;;;;;;17.40;15.85;;;28.50;99.90;;;;;;5037740;28;20179;-77
2022/08/28 11:37:45;;;;;;;15.85;14.50;;;28.20;99.90;;;;;;5034083;28;20207;-77
2022/08/28 11:40:42;;;;;;;23.95;22.20;;;28.10;99.90;;;;;;5035729;28;20744;-81
2022/08/28 11:43:14;;;;;;;25.73;23.90;;;27.90;99.90;;;;;;5041259;28;20193;-82
2022/08/28 11:45:44;;;;;;;22.13;20.73;;;27.90;99.90;;;;;;5038661;28;20209;-85
2022/08/28 11:48:25;;;;;;;29.17;27.23;;;28.20;99.90;;;;;;5037973;28;20197;-81
2022/08/28 11:51:19;;;;;;;15.52;14.52;;;28.50;99.90;;;;;;5040448;28;20175;-83
2022/08/28 11:54:15;;;;;;;17.27;15.82;;;28.50;99.90;;;;;;5039211;28;20194;-83
2022/08/28 11:57:00;;;;;;;17.73;16.48;;;28.20;99.90;;;;;;5036739;28;20253;-85
2022/08/28 11:59:49;;;;;;;17.02;15.93;;;28.40;99.90;;;;;;5032946;28;20808;-78
2022/08/28 12:02:37;;;;;;;18.35;17.02;;;28.30;99.90;;;;;;5033705;28;20183;-80
2022/08/28 12:05:11;;;;;;;13.60;12.60;;;29.00;99.90;;;;;;5033358;28;20270;-80
2022/08/28 12:07:48;;;;;;;14.45;13.25;;;29.40;99.90;;;;;;5032041;28;20229;-82
2022/08/28 12:10:23;;;;;;;10.10;9.20;;;30.30;99.90;;;;;;5026675;28;20206;-82
2022/08/28 12:12:52;;;;;;;12.95;12.13;;;31.70;99.50;;;;;;5034742;28;20183;-81
2022/08/28 12:15:29;;;;;;;11.57;8.48;;;33.30;96.00;;;;;;5036408;28;20160;-82
2022/08/28 12:18:13;;;;;;;9.18;8.57;;;32.80;95.30;;;;;;5038502;28;20213;-82
2022/08/28 12:21:01;;;;;;;36.85;34.88;;;33.30;95.30;;;;;;5056933;28;20171;-82
2022/08/28 12:23:44;;;;;;;39.10;37.03;;;34.30;92.80;;;;;;5053341;28;20227;-82
2022/08/28 12:26:20;;;;;;;19.70;18.40;;;34.40;91.20;;;;;;5043344;28;20280;-82
2022/08/28 12:28:49;;;;;;;10.40;9.25;;;34.60;90.50;;;;;;5036710;28;20175;-82
2022/08/28 12:32:10;;;;;;;15.20;14.18;;;34.90;84.30;;;;;;5035605;28;20175;-81
2022/08/28 12:34:51;;;;;;;23.27;21.88;;;35.00;84.80;;;;;;5035152;28;20203;-81
2022/08/28 12:37:23;;;;;;;8.15;7.35;;;33.90;84.20;;;;;;5035757;28;20217;-82
2022/08/28 12:39:50;;;;;;;13.20;12.38;;;32.30;89.20;;;;;;5056422;28;20191;-81
2022/08/28 12:42:19;;;;;;;23.17;21.85;;;31.30;91.20;;;;;;5053934;28;20186;-80
2022/08/28 12:44:45;;;;;;;62.28;58.90;;;30.60;92.40;;;;;;5041989;28;20179;-81
2022/08/28 12:47:19;;;;;;;39.08;36.90;;;30.10;94.10;;;;;;5050387;28;20223;-81
2022/08/28 12:49:45;;;;;;;15.38;14.35;;;29.80;95.20;;;;;;5035834;28;20175;-82
2022/08/28 12:52:15;;;;;;;11.10;10.10;;;29.60;94.70;;;;;;5035873;28;20187;-81